aviador You're here:

KMWA Decoded Metar

MARION REGIONAL in IL, USA
Report Time2018-05-26 14:45:00
UTC Time2018-05-26 15:44:24
Flight Rules vfr VFR
Wind240° at 05 kt
W.Decomp.*RWY 20: 3.9 kt HW 3.1 kt RCW
RWY 29: 3.1 kt HW 3.9 kt LCW
W.Rank240° ranks 23
Current wind is below 240° avg. (6.9)
Visibility9999 m
Phenomena:N/A
Clouds:Broken 100 Hf
Expected CloudBase > 800 ft AGL from Temp-Dew spread
Ceiling10,000 ft
Temp23°C (ISA +9)
Dew Point21°C (89% RH)
QNH1012 hPa
Density Alt1,873 ft
Elevation472 ft
Report Wrong Elevation
Raw Report
KMWA 261445Z 24005KT 10SM BKN100 23/21 A2989=

Extra information for KMWA:More info

Metar Taf Metar & Taf Last 4 Metars F.Rules Stats Wind Profile Meteogram Temp Stats Airport Information Weather charts Add Link Nearby VenuesMetar ALERT Operation Metar Decoded Social comments

AIRNAV info for KMWA